sensor_id;sensor_type;location;lat;lon;timestamp;pressure;altitude;pressure_sealevel;temperature;humidity
83762;BME280;73752;49.594;8.734;2023-12-20T00:01:17;99624.13;;;4.40;89.79
83762;BME280;73752;49.594;8.734;2023-12-20T00:03:42;99623.28;;;4.40;89.96
83762;BME280;73752;49.594;8.734;2023-12-20T00:06:07;99621.28;;;4.42;89.64
83762;BME280;73752;49.594;8.734;2023-12-20T00:08:33;99625.25;;;4.38;89.82
83762;BME280;73752;49.594;8.734;2023-12-20T00:10:58;99618.22;;;4.38;89.99
83762;BME280;73752;49.594;8.734;2023-12-20T00:13:23;99609.25;;;4.41;90.05
83762;BME280;73752;49.594;8.734;2023-12-20T00:15:49;99613.94;;;4.45;89.79
83762;BME280;73752;49.594;8.734;2023-12-20T00:18:14;99602.19;;;4.41;89.84
83762;BME280;73752;49.594;8.734;2023-12-20T00:20:39;99604.63;;;4.43;89.82
83762;BME280;73752;49.594;8.734;2023-12-20T00:23:04;99602.00;;;4.43;89.90
83762;BME280;73752;49.594;8.734;2023-12-20T00:25:30;99614.28;;;4.42;89.99
83762;BME280;73752;49.594;8.734;2023-12-20T00:27:55;99608.22;;;4.42;89.95
83762;BME280;73752;49.594;8.734;2023-12-20T00:30:20;99606.25;;;4.44;90.07
83762;BME280;73752;49.594;8.734;2023-12-20T00:32:46;99605.06;;;4.46;89.96
83762;BME280;73752;49.594;8.734;2023-12-20T00:35:18;99606.88;;;4.46;89.98
83762;BME280;73752;49.594;8.734;2023-12-20T00:37:43;99602.47;;;4.46;89.93
83762;BME280;73752;49.594;8.734;2023-12-20T00:40:09;99602.81;;;4.43;89.77
83762;BME280;73752;49.594;8.734;2023-12-20T00:42:34;99594.00;;;4.44;89.63
83762;BME280;73752;49.594;8.734;2023-12-20T00:45:01;99594.97;;;4.43;90.02
83762;BME280;73752;49.594;8.734;2023-12-20T00:47:26;99588.94;;;4.43;90.15
83762;BME280;73752;49.594;8.734;2023-12-20T00:49:51;99591.00;;;4.47;90.16
83762;BME280;73752;49.594;8.734;2023-12-20T00:52:17;99593.47;;;4.49;89.84
83762;BME280;73752;49.594;8.734;2023-12-20T00:54:43;99597.22;;;4.46;90.08
83762;BME280;73752;49.594;8.734;2023-12-20T00:57:09;99588.78;;;4.44;89.96
83762;BME280;73752;49.594;8.734;2023-12-20T00:59:34;99594.72;;;4.53;89.91
83762;BME280;73752;49.594;8.734;2023-12-20T01:01:59;99588.22;;;4.49;89.91
83762;BME280;73752;49.594;8.734;2023-12-20T01:04:25;99583.97;;;4.48;90.08
83762;BME280;73752;49.594;8.734;2023-12-20T01:06:51;99583.00;;;4.49;90.10
83762;BME280;73752;49.594;8.734;2023-12-20T01:09:17;99580.13;;;4.44;90.18
83762;BME280;73752;49.594;8.734;2023-12-20T01:11:42;99575.50;;;4.46;90.11
83762;BME280;73752;49.594;8.734;2023-12-20T01:14:08;99575.69;;;4.44;90.20
83762;BME280;73752;49.594;8.734;2023-12-20T01:16:33;99586.22;;;4.51;90.12
83762;BME280;73752;49.594;8.734;2023-12-20T01:18:58;99580.72;;;4.46;90.26
83762;BME280;73752;49.594;8.734;2023-12-20T01:21:23;99583.16;;;4.47;90.12
83762;BME280;73752;49.594;8.734;2023-12-20T01:23:49;99582.19;;;4.48;90.03
83762;BME280;73752;49.594;8.734;2023-12-20T01:26:14;99583.00;;;4.49;90.25
83762;BME280;73752;49.594;8.734;2023-12-20T01:28:40;99575.69;;;4.44;90.25
83762;BME280;73752;49.594;8.734;2023-12-20T01:31:05;99567.47;;;4.47;90.44
83762;BME280;73752;49.594;8.734;2023-12-20T01:33:31;99576.59;;;4.52;90.24
83762;BME280;73752;49.594;8.734;2023-12-20T01:35:56;99577.13;;;4.47;90.16
83762;BME280;73752;49.594;8.734;2023-12-20T01:38:21;99578.75;;;4.48;90.12
83762;BME280;73752;49.594;8.734;2023-12-20T01:40:47;99568.84;;;4.43;90.16
83762;BME280;73752;49.594;8.734;2023-12-20T01:43:12;99590.03;;;4.48;90.15
83762;BME280;73752;49.594;8.734;2023-12-20T01:45:38;99588.56;;;4.46;90.20
83762;BME280;73752;49.594;8.734;2023-12-20T01:48:04;99599.50;;;4.49;90.18
83762;BME280;73752;49.594;8.734;2023-12-20T01:50:31;99589.47;;;4.53;90.15
83762;BME280;73752;49.594;8.734;2023-12-20T01:52:58;99584.63;;;4.50;90.01
83762;BME280;73752;49.594;8.734;2023-12-20T01:55:25;99585.63;;;4.49;90.04
83762;BME280;73752;49.594;8.734;2023-12-20T01:57:52;99588.41;;;4.47;90.02
83762;BME280;73752;49.594;8.734;2023-12-20T02:00:18;99588.78;;;4.44;89.99
83762;BME280;73752;49.594;8.734;2023-12-20T02:02:45;99580.13;;;4.44;90.25
83762;BME280;73752;49.594;8.734;2023-12-20T02:05:11;99571.44;;;4.43;90.09
83762;BME280;73752;49.594;8.734;2023-12-20T02:07:36;99576.03;;;4.41;90.41
83762;BME280;73752;49.594;8.734;2023-12-20T02:10:02;99571.91;;;4.47;90.23
83762;BME280;73752;49.594;8.734;2023-12-20T02:12:28;99582.91;;;4.42;90.04
83762;BME280;73752;49.594;8.734;2023-12-20T02:14:53;99583.72;;;4.43;90.05
83762;BME280;73752;49.594;8.734;2023-12-20T02:17:19;99574.25;;;4.42;90.05
83762;BME280;73752;49.594;8.734;2023-12-20T02:19:45;99575.69;;;4.44;90.00
83762;BME280;73752;49.594;8.734;2023-12-20T02:22:10;99575.31;;;4.47;89.86
83762;BME280;73752;49.594;8.734;2023-12-20T02:24:36;99578.47;;;4.43;89.85
83762;BME280;73752;49.594;8.734;2023-12-20T02:27:02;99578.13;;;4.46;89.75
83762;BME280;73752;49.594;8.734;2023-12-20T02:29:27;99571.44;;;4.43;89.84
83762;BME280;73752;49.594;8.734;2023-12-20T02:31:53;99565.31;;;4.51;89.69
83762;BME280;73752;49.594;8.734;2023-12-20T02:34:18;99571.91;;;4.47;89.51
83762;BME280;73752;49.594;8.734;2023-12-20T02:36:43;99575.88;;;4.43;89.86
83762;BME280;73752;49.594;8.734;2023-12-20T02:39:08;99570.81;;;4.41;89.85
83762;BME280;73752;49.594;8.734;2023-12-20T02:41:34;99580.47;;;4.41;89.89
83762;BME280;73752;49.594;8.734;2023-12-20T02:44:00;99581.25;;;4.41;90.05
83762;BME280;73752;49.594;8.734;2023-12-20T02:46:25;99594.16;;;4.43;90.02
83762;BME280;73752;49.594;8.734;2023-12-20T02:48:50;99590.75;;;4.42;90.12
83762;BME280;73752;49.594;8.734;2023-12-20T02:51:16;99575.06;;;4.42;89.97
83762;BME280;73752;49.594;8.734;2023-12-20T02:53:41;99566.22;;;4.43;89.93
83762;BME280;73752;49.594;8.734;2023-12-20T02:56:06;99559.19;;;4.44;89.62
83762;BME280;73752;49.594;8.734;2023-12-20T02:58:32;99572.44;;;4.42;89.68
83762;BME280;73752;49.594;8.734;2023-12-20T03:00:57;99575.25;;;4.41;89.72
83762;BME280;73752;49.594;8.734;2023-12-20T03:03:22;99570.56;;;4.36;89.85
83762;BME280;73752;49.594;8.734;2023-12-20T03:05:47;99578.41;;;4.36;89.99
83762;BME280;73752;49.594;8.734;2023-12-20T03:08:13;99584.91;;;4.40;89.97
83762;BME280;73752;49.594;8.734;2023-12-20T03:10:38;99575.59;;;4.38;90.05
83762;BME280;73752;49.594;8.734;2023-12-20T03:13:03;99570.56;;;4.36;89.78
83762;BME280;73752;49.594;8.734;2023-12-20T03:15:29;99565.50;;;4.35;89.66
83762;BME280;73752;49.594;8.734;2023-12-20T03:17:54;99571.56;;;4.35;89.77
83762;BME280;73752;49.594;8.734;2023-12-20T03:20:20;99572.16;;;4.37;90.09
83762;BME280;73752;49.594;8.734;2023-12-20T03:22:45;99583.81;;;4.35;90.05
83762;BME280;73752;49.594;8.734;2023-12-20T03:25:10;99586.41;;;4.35;89.95
83762;BME280;73752;49.594;8.734;2023-12-20T03:27:38;99583.63;;;4.36;89.97
83762;BME280;73752;49.594;8.734;2023-12-20T03:30:04;99578.75;;;4.33;89.70
83762;BME280;73752;49.594;8.734;2023-12-20T03:32:30;99579.72;;;4.32;89.59
83762;BME280;73752;49.594;8.734;2023-12-20T03:34:55;99585.34;;;4.29;89.74
83762;BME280;73752;49.594;8.734;2023-12-20T03:37:21;99592.03;;;4.32;89.72
83762;BME280;73752;49.594;8.734;2023-12-20T03:39:47;99593.19;;;4.29;89.76
83762;BME280;73752;49.594;8.734;2023-12-20T03:42:12;99583.16;;;4.33;89.84
83762;BME280;73752;49.594;8.734;2023-12-20T03:44:39;99587.13;;;4.29;89.80
83762;BME280;73752;49.594;8.734;2023-12-20T03:47:05;99582.56;;;4.31;89.83
83762;BME280;73752;49.594;8.734;2023-12-20T03:49:30;99574.06;;;4.29;89.74
83762;BME280;73752;49.594;8.734;2023-12-20T03:51:55;99585.16;;;4.31;89.86
83762;BME280;73752;49.594;8.734;2023-12-20T03:54:21;99581.19;;;4.35;89.88
83762;BME280;73752;49.594;8.734;2023-12-20T03:56:46;99575.59;;;4.38;89.65
83762;BME280;73752;49.594;8.734;2023-12-20T03:59:11;99569.75;;;4.36;89.65
83762;BME280;73752;49.594;8.734;2023-12-20T04:01:37;99576.59;;;4.37;89.74
83762;BME280;73752;49.594;8.734;2023-12-20T04:04:02;99582.63;;;4.37;89.66
83762;BME280;73752;49.594;8.734;2023-12-20T04:06:27;99577.59;;;4.36;89.90
83762;BME280;73752;49.594;8.734;2023-12-20T04:08:53;99581.81;;;4.37;89.49
83762;BME280;73752;49.594;8.734;2023-12-20T04:11:18;99579.47;;;4.42;89.57
83762;BME280;73752;49.594;8.734;2023-12-20T04:13:43;99590.94;;;4.41;89.67
83762;BME280;73752;49.594;8.734;2023-12-20T04:16:09;99588.31;;;4.41;89.91
83762;BME280;73752;49.594;8.734;2023-12-20T04:18:34;99599.03;;;4.46;89.41
83762;BME280;73752;49.594;8.734;2023-12-20T04:20:59;99586.50;;;4.41;89.31
83762;BME280;73752;49.594;8.734;2023-12-20T04:23:25;99595.97;;;4.42;89.55
83762;BME280;73752;49.594;8.734;2023-12-20T04:25:50;99598.59;;;4.42;89.82
83762;BME280;73752;49.594;8.734;2023-12-20T04:28:15;99590.47;;;4.37;89.55
83762;BME280;73752;49.594;8.734;2023-12-20T04:30:42;99594.00;;;4.44;89.60
83762;BME280;73752;49.594;8.734;2023-12-20T04:33:07;99601.56;;;4.39;89.51
83762;BME280;73752;49.594;8.734;2023-12-20T04:35:32;99603.38;;;4.39;89.75
83762;BME280;73752;49.594;8.734;2023-12-20T04:37:58;99605.16;;;4.38;89.95
83762;BME280;73752;49.594;8.734;2023-12-20T04:40:23;99600.59;;;4.40;89.86
83762;BME280;73752;49.594;8.734;2023-12-20T04:42:48;99610.84;;;4.42;89.89
83762;BME280;73752;49.594;8.734;2023-12-20T04:45:14;99619.78;;;4.47;89.92
83762;BME280;73752;49.594;8.734;2023-12-20T04:47:41;99611.66;;;4.42;89.71
83762;BME280;73752;49.594;8.734;2023-12-20T04:50:07;99615.09;;;4.43;89.83
83762;BME280;73752;49.594;8.734;2023-12-20T04:52:33;99617.69;;;4.43;89.65
83762;BME280;73752;49.594;8.734;2023-12-20T04:54:59;99627.25;;;4.50;89.84
83762;BME280;73752;49.594;8.734;2023-12-20T04:57:24;99613.56;;;4.48;89.80
83762;BME280;73752;49.594;8.734;2023-12-20T04:59:50;99614.91;;;4.44;89.85
83762;BME280;73752;49.594;8.734;2023-12-20T05:02:15;99618.34;;;4.45;89.80
83762;BME280;73752;49.594;8.734;2023-12-20T05:04:40;99612.31;;;4.44;89.87
83762;BME280;73752;49.594;8.734;2023-12-20T05:07:06;99624.47;;;4.52;89.82
83762;BME280;73752;49.594;8.734;2023-12-20T05:09:32;99627.63;;;4.47;89.64
83762;BME280;73752;49.594;8.734;2023-12-20T05:11:57;99640.53;;;4.49;89.84
83762;BME280;73752;49.594;8.734;2023-12-20T05:14:22;99649.34;;;4.48;89.82
83762;BME280;73752;49.594;8.734;2023-12-20T05:16:48;99639.06;;;4.46;89.73
83762;BME280;73752;49.594;8.734;2023-12-20T05:19:13;99653.22;;;4.52;89.78
83762;BME280;73752;49.594;8.734;2023-12-20T05:21:39;99646.56;;;4.49;89.87
83762;BME280;73752;49.594;8.734;2023-12-20T05:24:05;99652.59;;;4.50;89.67
83762;BME280;73752;49.594;8.734;2023-12-20T05:26:30;99656.47;;;4.54;89.74
83762;BME280;73752;49.594;8.734;2023-12-20T05:28:55;99650.59;;;4.52;89.72
83762;BME280;73752;49.594;8.734;2023-12-20T05:31:21;99654.22;;;4.51;89.50
83762;BME280;73752;49.594;8.734;2023-12-20T05:33:46;99667.28;;;4.51;89.78
83762;BME280;73752;49.594;8.734;2023-12-20T05:36:12;99661.44;;;4.49;89.66
83762;BME280;73752;49.594;8.734;2023-12-20T05:38:39;99665.47;;;4.52;89.78
83762;BME280;73752;49.594;8.734;2023-12-20T05:41:04;99650.25;;;4.40;89.93
83762;BME280;73752;49.594;8.734;2023-12-20T05:43:29;99673.41;;;4.43;89.69
83762;BME280;73752;49.594;8.734;2023-12-20T05:45:55;99680.56;;;4.49;89.86
83762;BME280;73752;49.594;8.734;2023-12-20T05:48:20;99685.41;;;4.53;89.72
83762;BME280;73752;49.594;8.734;2023-12-20T05:50:45;99687.56;;;4.49;89.77
83762;BME280;73752;49.594;8.734;2023-12-20T05:53:10;99688.84;;;4.53;89.93
83762;BME280;73752;49.594;8.734;2023-12-20T05:55:36;99695.44;;;4.49;89.76
83762;BME280;73752;49.594;8.734;2023-12-20T05:58:01;99709.94;;;4.52;90.01
83762;BME280;73752;49.594;8.734;2023-12-20T06:00:26;99713.72;;;4.49;90.23
83762;BME280;73752;49.594;8.734;2023-12-20T06:02:52;99725.44;;;4.53;89.96
83762;BME280;73752;49.594;8.734;2023-12-20T06:05:17;99728.50;;;4.57;89.66
83762;BME280;73752;49.594;8.734;2023-12-20T06:07:43;99727.41;;;4.51;89.84
83762;BME280;73752;49.594;8.734;2023-12-20T06:10:10;99727.38;;;4.59;89.71
83762;BME280;73752;49.594;8.734;2023-12-20T06:12:35;99727.53;;;4.58;89.31
83762;BME280;73752;49.594;8.734;2023-12-20T06:15:01;99732.94;;;4.56;89.14
83762;BME280;73752;49.594;8.734;2023-12-20T06:17:27;99731.19;;;4.34;88.85
83762;BME280;73752;49.594;8.734;2023-12-20T06:19:55;99738.63;;;4.22;89.13
83762;BME280;73752;49.594;8.734;2023-12-20T06:22:20;99730.44;;;4.02;89.23
83762;BME280;73752;49.594;8.734;2023-12-20T06:24:45;99737.00;;;3.98;89.42
83762;BME280;73752;49.594;8.734;2023-12-20T06:27:11;99734.91;;;3.94;89.62
83762;BME280;73752;49.594;8.734;2023-12-20T06:29:36;99734.34;;;3.84;89.42
83762;BME280;73752;49.594;8.734;2023-12-20T06:32:02;99736.88;;;3.92;90.24
83762;BME280;73752;49.594;8.734;2023-12-20T06:34:27;99729.34;;;3.97;90.19
83762;BME280;73752;49.594;8.734;2023-12-20T06:36:52;99735.84;;;4.01;90.33
83762;BME280;73752;49.594;8.734;2023-12-20T06:39:18;99738.94;;;4.04;90.42
83762;BME280;73752;49.594;8.734;2023-12-20T06:41:43;99729.31;;;4.05;90.27
83762;BME280;73752;49.594;8.734;2023-12-20T06:44:08;99745.25;;;4.10;90.46
83762;BME280;73752;49.594;8.734;2023-12-20T06:46:34;99747.91;;;4.02;90.44
83762;BME280;73752;49.594;8.734;2023-12-20T06:48:59;99745.59;;;4.07;90.39
83762;BME280;73752;49.594;8.734;2023-12-20T06:51:24;99740.72;;;4.04;90.63
83762;BME280;73752;49.594;8.734;2023-12-20T06:53:51;99749.56;;;4.03;90.53
83762;BME280;73752;49.594;8.734;2023-12-20T06:56:17;99733.59;;;3.98;90.25
83762;BME280;73752;49.594;8.734;2023-12-20T06:58:42;99732.38;;;3.86;90.27
83762;BME280;73752;49.594;8.734;2023-12-20T07:01:12;99735.81;;;3.86;90.48
83762;BME280;73752;49.594;8.734;2023-12-20T07:03:38;99731.66;;;3.69;90.54
83762;BME280;73752;49.594;8.734;2023-12-20T07:06:03;99738.91;;;3.59;90.56
83762;BME280;73752;49.594;8.734;2023-12-20T07:08:29;99724.28;;;3.50;90.37
83762;BME280;73752;49.594;8.734;2023-12-20T07:10:54;99739.13;;;3.49;90.50
83762;BME280;73752;49.594;8.734;2023-12-20T07:13:19;99753.19;;;3.40;90.65
83762;BME280;73752;49.594;8.734;2023-12-20T07:15:45;99754.69;;;3.35;90.52
83762;BME280;73752;49.594;8.734;2023-12-20T07:18:10;99746.53;;;3.30;90.65
83762;BME280;73752;49.594;8.734;2023-12-20T07:20:36;99744.78;;;3.22;90.56
83762;BME280;73752;49.594;8.734;2023-12-20T07:23:01;99742.69;;;3.18;90.68
83762;BME280;73752;49.594;8.734;2023-12-20T07:25:26;99744.78;;;3.22;90.80
83762;BME280;73752;49.594;8.734;2023-12-20T07:27:52;99726.38;;;3.15;90.62
83762;BME280;73752;49.594;8.734;2023-12-20T07:30:17;99732.03;;;3.27;90.83
83762;BME280;73752;49.594;8.734;2023-12-20T07:32:42;99744.41;;;3.33;91.03
83762;BME280;73752;49.594;8.734;2023-12-20T07:35:08;99740.34;;;3.31;90.95
83762;BME280;73752;49.594;8.734;2023-12-20T07:37:33;99747.25;;;3.24;90.88
83762;BME280;73752;49.594;8.734;2023-12-20T07:39:58;99748.84;;;3.25;90.94
83762;BME280;73752;49.594;8.734;2023-12-20T07:42:24;99758.69;;;3.14;90.98
83762;BME280;73752;49.594;8.734;2023-12-20T07:44:49;99757.88;;;3.14;90.80
83762;BME280;73752;49.594;8.734;2023-12-20T07:47:14;99762.09;;;3.15;91.09
83762;BME280;73752;49.594;8.734;2023-12-20T07:49:43;99767.59;;;3.20;90.99
83762;BME280;73752;49.594;8.734;2023-12-20T07:52:08;99770.72;;;3.24;90.78
83762;BME280;73752;49.594;8.734;2023-12-20T07:54:34;99773.31;;;3.24;90.73
83762;BME280;73752;49.594;8.734;2023-12-20T07:56:59;99775.13;;;3.23;90.86
83762;BME280;73752;49.594;8.734;2023-12-20T07:59:24;99780.94;;;3.33;90.85
83762;BME280;73752;49.594;8.734;2023-12-20T08:01:50;99787.91;;;3.49;90.47
83762;BME280;73752;49.594;8.734;2023-12-20T08:04:15;99787.34;;;3.62;90.48
83762;BME280;73752;49.594;8.734;2023-12-20T08:06:40;99783.72;;;3.71;90.53
83762;BME280;73752;49.594;8.734;2023-12-20T08:09:06;99780.06;;;3.80;90.21
83762;BME280;73752;49.594;8.734;2023-12-20T08:11:31;99785.44;;;3.86;90.34
83762;BME280;73752;49.594;8.734;2023-12-20T08:13:56;99767.31;;;3.85;89.98
83762;BME280;73752;49.594;8.734;2023-12-20T08:16:22;99779.50;;;3.92;89.78
83762;BME280;73752;49.594;8.734;2023-12-20T08:18:47;99790.25;;;3.97;89.38
83762;BME280;73752;49.594;8.734;2023-12-20T08:21:12;99784.03;;;3.98;88.93
83762;BME280;73752;49.594;8.734;2023-12-20T08:23:38;99791.34;;;4.03;88.00
83762;BME280;73752;49.594;8.734;2023-12-20T08:26:07;99783.53;;;4.03;88.11
83762;BME280;73752;49.594;8.734;2023-12-20T08:28:33;99787.47;;;3.99;87.87
83762;BME280;73752;49.594;8.734;2023-12-20T08:30:58;99793.00;;;4.04;87.62
83762;BME280;73752;49.594;8.734;2023-12-20T08:33:23;99786.50;;;3.92;87.17
83762;BME280;73752;49.594;8.734;2023-12-20T08:35:49;99789.84;;;3.86;86.99
83762;BME280;73752;49.594;8.734;2023-12-20T08:38:14;99796.69;;;3.87;86.58
83762;BME280;73752;49.594;8.734;2023-12-20T08:40:40;99798.44;;;3.94;86.68
83762;BME280;73752;49.594;8.734;2023-12-20T08:43:05;99793.22;;;3.94;86.92
83762;BME280;73752;49.594;8.734;2023-12-20T08:45:30;99799.72;;;3.98;86.57
83762;BME280;73752;49.594;8.734;2023-12-20T08:47:56;99799.13;;;4.11;86.13
83762;BME280;73752;49.594;8.734;2023-12-20T08:50:21;99814.22;;;4.24;86.23
83762;BME280;73752;49.594;8.734;2023-12-20T08:52:46;99805.06;;;4.28;85.67
83762;BME280;73752;49.594;8.734;2023-12-20T08:55:12;99803.56;;;4.33;85.24
83762;BME280;73752;49.594;8.734;2023-12-20T08:57:38;99798.31;;;4.33;84.91
83762;BME280;73752;49.594;8.734;2023-12-20T09:00:03;99793.69;;;4.43;85.46
83762;BME280;73752;49.594;8.734;2023-12-20T09:02:29;99810.28;;;4.50;84.78
83762;BME280;73752;49.594;8.734;2023-12-20T09:04:54;99809.56;;;4.57;84.59
83762;BME280;73752;49.594;8.734;2023-12-20T09:07:25;99814.84;;;4.71;84.51
83762;BME280;73752;49.594;8.734;2023-12-20T09:09:50;99814.66;;;4.73;84.24
83762;BME280;73752;49.594;8.734;2023-12-20T09:12:20;99818.66;;;4.83;84.31
83762;BME280;73752;49.594;8.734;2023-12-20T09:14:46;99811.38;;;4.93;83.87
83762;BME280;73752;49.594;8.734;2023-12-20T09:17:12;99811.41;;;5.08;83.39
83762;BME280;73752;49.594;8.734;2023-12-20T09:19:38;99809.94;;;5.06;82.84
83762;BME280;73752;49.594;8.734;2023-12-20T09:22:04;99814.47;;;5.12;82.87
83762;BME280;73752;49.594;8.734;2023-12-20T09:24:30;99812.28;;;5.15;82.66
83762;BME280;73752;49.594;8.734;2023-12-20T09:26:55;99807.22;;;5.14;82.15
83762;BME280;73752;49.594;8.734;2023-12-20T09:29:20;99815.72;;;5.16;82.45
83762;BME280;73752;49.594;8.734;2023-12-20T09:31:46;99822.34;;;5.26;82.42
83762;BME280;73752;49.594;8.734;2023-12-20T09:34:11;99823.13;;;5.27;82.23
83762;BME280;73752;49.594;8.734;2023-12-20T09:36:37;99823.38;;;5.32;82.24
83762;BME280;73752;49.594;8.734;2023-12-20T09:39:05;99812.03;;;5.25;81.71
83762;BME280;73752;49.594;8.734;2023-12-20T09:41:37;99820.22;;;5.36;80.92
83762;BME280;73752;49.594;8.734;2023-12-20T09:44:03;99824.47;;;5.37;81.20
83762;BME280;73752;49.594;8.734;2023-12-20T09:46:32;99824.38;;;5.46;80.36
83762;BME280;73752;49.594;8.734;2023-12-20T09:48:59;99826.72;;;5.40;80.25
83762;BME280;73752;49.594;8.734;2023-12-20T09:51:27;99825.84;;;5.48;80.65
83762;BME280;73752;49.594;8.734;2023-12-20T09:53:54;99827.47;;;5.49;80.44
83762;BME280;73752;49.594;8.734;2023-12-20T09:56:20;99818.09;;;5.40;80.84
83762;BME280;73752;49.594;8.734;2023-12-20T09:58:45;99819.50;;;5.43;80.29
83762;BME280;73752;49.594;8.734;2023-12-20T10:01:11;99821.41;;;5.34;80.31
83762;BME280;73752;49.594;8.734;2023-12-20T10:03:39;99824.03;;;5.34;80.49
83762;BME280;73752;49.594;8.734;2023-12-20T10:06:06;99825.41;;;5.30;80.45
83762;BME280;73752;49.594;8.734;2023-12-20T10:08:32;99819.22;;;5.23;80.62
83762;BME280;73752;49.594;8.734;2023-12-20T10:10:58;99827.03;;;5.31;80.28
83762;BME280;73752;49.594;8.734;2023-12-20T10:13:27;99825.19;;;5.31;80.96
83762;BME280;73752;49.594;8.734;2023-12-20T10:15:55;99818.81;;;5.34;80.14
83762;BME280;73752;49.594;8.734;2023-12-20T10:18:20;99822.13;;;5.43;79.55
83762;BME280;73752;49.594;8.734;2023-12-20T10:20:46;99799.22;;;5.30;80.16
83762;BME280;73752;49.594;8.734;2023-12-20T10:23:11;99807.41;;;5.42;80.71
83762;BME280;73752;49.594;8.734;2023-12-20T10:25:37;99812.38;;;5.36;79.97
83762;BME280;73752;49.594;8.734;2023-12-20T10:28:13;99806.41;;;5.43;80.07
83762;BME280;73752;49.594;8.734;2023-12-20T10:30:40;99800.47;;;5.49;80.27
83762;BME280;73752;49.594;8.734;2023-12-20T10:33:09;99808.22;;;5.57;80.35
83762;BME280;73752;49.594;8.734;2023-12-20T10:35:38;99804.69;;;5.64;80.15
83762;BME280;73752;49.594;8.734;2023-12-20T10:38:05;99807.13;;;5.66;79.42
83762;BME280;73752;49.594;8.734;2023-12-20T10:40:31;99803.88;;;5.64;79.98
83762;BME280;73752;49.594;8.734;2023-12-20T10:42:58;99797.81;;;5.63;80.36
83762;BME280;73752;49.594;8.734;2023-12-20T10:45:23;99796.72;;;5.72;80.09
83762;BME280;73752;49.594;8.734;2023-12-20T10:47:50;99791.56;;;5.79;79.76
83762;BME280;73752;49.594;8.734;2023-12-20T10:50:15;99796.63;;;5.80;79.80
83762;BME280;73752;49.594;8.734;2023-12-20T10:52:42;99790.56;;;5.80;79.31
83762;BME280;73752;49.594;8.734;2023-12-20T10:55:07;99792.00;;;5.82;80.00
83762;BME280;73752;49.594;8.734;2023-12-20T10:57:36;99788.28;;;5.92;79.70
83762;BME280;73752;49.594;8.734;2023-12-20T11:00:02;99783.13;;;5.83;78.81
83762;BME280;73752;49.594;8.734;2023-12-20T11:02:32;99795.25;;;5.84;79.25
83762;BME280;73752;49.594;8.734;2023-12-20T11:05:15;99783.06;;;5.92;78.65
83762;BME280;73752;49.594;8.734;2023-12-20T11:07:50;99776.19;;;5.91;77.80
83762;BME280;73752;49.594;8.734;2023-12-20T11:10:22;99771.03;;;5.97;77.27
83762;BME280;73752;49.594;8.734;2023-12-20T11:12:54;99768.69;;;5.88;77.38
83762;BME280;73752;49.594;8.734;2023-12-20T11:15:22;99765.97;;;5.96;77.78
83762;BME280;73752;49.594;8.734;2023-12-20T11:17:56;99759.72;;;5.97;76.81
83762;BME280;73752;49.594;8.734;2023-12-20T11:20:36;99763.91;;;5.91;77.06
83762;BME280;73752;49.594;8.734;2023-12-20T11:23:02;99758.31;;;5.94;77.14
83762;BME280;73752;49.594;8.734;2023-12-20T11:25:27;99752.81;;;5.89;76.88
83762;BME280;73752;49.594;8.734;2023-12-20T11:28:10;99748.25;;;5.98;75.72
83762;BME280;73752;49.594;8.734;2023-12-20T11:30:42;99745.81;;;5.81;75.88
83762;BME280;73752;49.594;8.734;2023-12-20T11:33:10;99745.81;;;5.81;76.78
83762;BME280;73752;49.594;8.734;2023-12-20T11:35:35;99740.41;;;5.83;76.76
83762;BME280;73752;49.594;8.734;2023-12-20T11:38:02;99752.50;;;5.84;77.42
83762;BME280;73752;49.594;8.734;2023-12-20T11:40:27;99743.84;;;5.83;76.80
83762;BME280;73752;49.594;8.734;2023-12-20T11:42:52;99731.28;;;5.79;76.83
83762;BME280;73752;49.594;8.734;2023-12-20T11:45:24;99746.19;;;5.78;76.79
83762;BME280;73752;49.594;8.734;2023-12-20T11:47:50;99755.88;;;5.78;76.87
83762;BME280;73752;49.594;8.734;2023-12-20T11:50:20;99752.81;;;5.74;76.90
83762;BME280;73752;49.594;8.734;2023-12-20T11:52:46;99748.19;;;5.76;76.82
83762;BME280;73752;49.594;8.734;2023-12-20T11:55:11;99753.25;;;5.78;76.82
83762;BME280;73752;49.594;8.734;2023-12-20T11:57:37;99751.25;;;5.80;77.36
83762;BME280;73752;49.594;8.734;2023-12-20T12:00:04;99746.19;;;5.78;76.72
83762;BME280;73752;49.594;8.734;2023-12-20T12:02:30;99735.47;;;5.73;76.40
83762;BME280;73752;49.594;8.734;2023-12-20T12:04:55;99736.19;;;5.67;76.55
83762;BME280;73752;49.594;8.734;2023-12-20T12:07:21;99746.75;;;5.74;76.79
83762;BME280;73752;49.594;8.734;2023-12-20T12:09:47;99742.94;;;5.76;76.61
83762;BME280;73752;49.594;8.734;2023-12-20T12:12:13;99743.59;;;5.78;76.71
83762;BME280;73752;49.594;8.734;2023-12-20T12:14:39;99743.59;;;5.78;77.07
83762;BME280;73752;49.594;8.734;2023-12-20T12:17:10;99737.28;;;5.73;76.74
83762;BME280;73752;49.594;8.734;2023-12-20T12:19:35;99752.13;;;5.66;77.58
83762;BME280;73752;49.594;8.734;2023-12-20T12:22:12;99738.19;;;5.65;77.23
83762;BME280;73752;49.594;8.734;2023-12-20T12:24:46;99737.22;;;5.66;77.45
83762;BME280;73752;49.594;8.734;2023-12-20T12:27:12;99726.03;;;5.58;76.78
83762;BME280;73752;49.594;8.734;2023-12-20T12:29:38;99725.41;;;5.56;77.02
83762;BME280;73752;49.594;8.734;2023-12-20T12:32:08;99727.03;;;5.57;76.13
83762;BME280;73752;49.594;8.734;2023-12-20T12:34:34;99735.44;;;5.52;76.95
83762;BME280;73752;49.594;8.734;2023-12-20T12:37:00;99737.41;;;5.50;77.89
83762;BME280;73752;49.594;8.734;2023-12-20T12:39:25;99736.16;;;5.46;77.32
83762;BME280;73752;49.594;8.734;2023-12-20T12:41:51;99730.66;;;5.41;77.24
83762;BME280;73752;49.594;8.734;2023-12-20T12:44:16;99727.59;;;5.37;77.93
83762;BME280;73752;49.594;8.734;2023-12-20T12:46:43;99743.03;;;5.32;77.98
83762;BME280;73752;49.594;8.734;2023-12-20T12:49:08;99752.97;;;5.37;77.35
83762;BME280;73752;49.594;8.734;2023-12-20T12:51:34;99747.13;;;5.35;77.64
83762;BME280;73752;49.594;8.734;2023-12-20T12:53:59;99748.72;;;5.36;77.83
83762;BME280;73752;49.594;8.734;2023-12-20T12:56:24;99752.34;;;5.35;77.98
83762;BME280;73752;49.594;8.734;2023-12-20T12:58:50;99751.53;;;5.34;77.72
83762;BME280;73752;49.594;8.734;2023-12-20T13:01:15;99750.56;;;5.35;77.42
83762;BME280;73752;49.594;8.734;2023-12-20T13:03:40;99737.09;;;5.38;77.60